createdAt,value
2018-05-28T00:01:49.289Z,23.80
2018-05-28T00:04:16.772Z,23.70
2018-05-28T00:06:44.239Z,23.40
2018-05-28T00:09:11.693Z,23.60
2018-05-28T00:11:39.168Z,23.40
2018-05-28T00:14:06.724Z,23.60
2018-05-28T00:16:34.168Z,23.10
2018-05-28T00:19:01.736Z,23.10
2018-05-28T00:21:29.211Z,23.40
2018-05-28T00:23:56.672Z,23.00
2018-05-28T00:26:24.237Z,23.00
2018-05-28T00:28:51.722Z,22.90
2018-05-28T00:31:19.261Z,22.90
2018-05-28T00:33:46.725Z,22.80
2018-05-28T00:36:14.192Z,23.00
2018-05-28T00:38:41.655Z,22.70
2018-05-28T00:41:09.100Z,22.80
2018-05-28T00:43:36.681Z,23.10
2018-05-28T00:46:04.946Z,23.00
2018-05-28T00:48:32.412Z,23.00
2018-05-28T00:50:59.859Z,22.60
2018-05-28T00:53:27.351Z,22.80
2018-05-28T00:55:54.803Z,23.00
2018-05-28T00:58:22.256Z,22.90
2018-05-28T01:00:49.711Z,22.50
2018-05-28T01:03:17.177Z,22.80
2018-05-28T01:05:44.736Z,22.90
2018-05-28T01:08:12.203Z,22.90
2018-05-28T01:10:39.681Z,22.90
2018-05-28T01:13:07.520Z,23.10
2018-05-28T01:15:34.974Z,23.10
2018-05-28T01:18:02.450Z,23.30
2018-05-28T01:20:29.905Z,23.40
2018-05-28T01:22:57.401Z,23.50
2018-05-28T01:25:24.876Z,23.20
2018-05-28T01:27:53.113Z,23.00
2018-05-28T01:30:20.576Z,23.00
2018-05-28T01:32:48.060Z,23.10
2018-05-28T01:35:15.526Z,23.30
2018-05-28T01:37:42.994Z,23.20
2018-05-28T01:40:10.451Z,23.30
2018-05-28T01:42:37.909Z,23.30
2018-05-28T01:45:05.376Z,23.30
2018-05-28T01:47:32.869Z,23.20
2018-05-28T01:50:01.087Z,23.20
2018-05-28T01:52:28.542Z,23.20
2018-05-28T01:54:56.023Z,23.20
2018-05-28T01:57:23.484Z,23.10
2018-05-28T01:59:50.952Z,23.10
2018-05-28T02:02:18.415Z,23.10
2018-05-28T02:04:45.897Z,23.10
2018-05-28T02:07:13.358Z,23.00
2018-05-28T02:09:40.915Z,23.00
2018-05-28T02:12:08.421Z,23.10
2018-05-28T02:14:36.743Z,23.00
2018-05-28T02:17:04.206Z,23.00
2018-05-28T02:19:31.740Z,22.80
2018-05-28T02:21:59.246Z,22.80
2018-05-28T02:24:26.707Z,22.80
2018-05-28T02:26:54.165Z,22.80
2018-05-28T02:29:21.628Z,22.90
2018-05-28T02:31:49.101Z,23.00
2018-05-28T02:34:16.555Z,22.90
2018-05-28T02:36:44.011Z,22.40
2018-05-28T02:39:11.484Z,22.30
2018-05-28T02:41:38.957Z,22.60
2018-05-28T02:44:06.509Z,22.70
2018-05-28T02:46:34.075Z,22.60
2018-05-28T02:49:03.043Z,22.60
2018-05-28T02:51:30.537Z,22.60
2018-05-28T02:53:57.988Z,22.50
2018-05-28T02:56:25.434Z,22.50
2018-05-28T02:58:52.889Z,22.40
2018-05-28T03:01:20.377Z,22.20
2018-05-28T03:03:47.839Z,22.30
2018-05-28T03:06:15.306Z,22.40
2018-05-28T03:08:42.786Z,22.50
2018-05-28T03:11:10.255Z,22.50
2018-05-28T03:13:38.513Z,22.40
2018-05-28T03:16:06.743Z,22.40
2018-05-28T03:18:34.215Z,22.40
2018-05-28T03:21:01.670Z,22.40
2018-05-28T03:23:29.136Z,22.30
2018-05-28T03:25:56.823Z,22.20
2018-05-28T03:28:24.282Z,22.30
2018-05-28T03:30:51.772Z,22.30
2018-05-28T03:33:19.245Z,22.30
2018-05-28T03:35:46.719Z,22.40
2018-05-28T03:38:14.963Z,22.40
2018-05-28T03:40:42.434Z,22.40
2018-05-28T03:43:10.008Z,22.50
2018-05-28T03:45:37.542Z,22.40
2018-05-28T03:48:05.005Z,22.30
2018-05-28T03:50:32.469Z,22.20
2018-05-28T03:52:59.914Z,22.20
2018-05-28T03:55:27.388Z,22.10
2018-05-28T03:57:54.857Z,22.00
2018-05-28T04:00:34.353Z,21.80
2018-05-28T04:03:13.817Z,21.90
2018-05-28T04:05:53.372Z,22.00
2018-05-28T04:08:20.933Z,22.00
2018-05-28T04:10:48.407Z,22.10
2018-05-28T04:13:15.977Z,22.20
2018-05-28T04:15:43.461Z,22.20
2018-05-28T04:18:11.722Z,22.10
2018-05-28T04:20:39.281Z,22.10
2018-05-28T04:23:06.739Z,22.10
2018-05-28T04:25:34.212Z,22.00
2018-05-28T04:28:01.829Z,21.80
2018-05-28T04:30:29.249Z,21.70
2018-05-28T04:32:57.503Z,21.30
2018-05-28T04:35:24.992Z,21.30
2018-05-28T04:37:52.533Z,21.30
2018-05-28T04:40:20.113Z,21.20
2018-05-28T04:42:48.988Z,21.00
2018-05-28T04:45:16.463Z,21.00
2018-05-28T04:47:45.439Z,21.10
2018-05-28T04:50:12.895Z,21.10
2018-05-28T04:52:40.358Z,21.00
2018-05-28T04:55:07.855Z,21.00
2018-05-28T04:57:36.085Z,21.00
2018-05-28T05:00:03.551Z,21.00
2018-05-28T05:02:31.033Z,21.00
2018-05-28T05:04:58.490Z,20.60
2018-05-28T05:07:25.974Z,20.50
2018-05-28T05:09:53.434Z,20.50
2018-05-28T05:12:22.412Z,20.70
2018-05-28T05:14:49.885Z,20.70
2018-05-28T05:17:17.342Z,20.40
2018-05-28T05:19:44.803Z,20.50
2018-05-28T05:22:12.268Z,20.70
2018-05-28T05:24:39.738Z,20.80
2018-05-28T05:27:07.209Z,20.80
2018-05-28T05:29:34.655Z,20.70
2018-05-28T05:32:02.219Z,20.70
2018-05-28T05:34:29.691Z,21.00
2018-05-28T05:36:58.693Z,21.00
2018-05-28T05:39:26.238Z,21.00
2018-05-28T05:41:53.694Z,21.00
2018-05-28T05:44:22.655Z,21.30
2018-05-28T05:46:50.128Z,21.20
2018-05-28T05:49:17.599Z,20.90
2018-05-28T05:51:45.098Z,20.70
2018-05-28T05:54:12.660Z,20.90
2018-05-28T05:56:40.137Z,20.90
2018-05-28T05:59:07.592Z,20.80
2018-05-28T06:01:35.139Z,21.00
2018-05-28T06:04:02.722Z,21.00
2018-05-28T06:06:30.179Z,20.80
2018-05-28T06:08:57.672Z,20.90
2018-05-28T06:11:26.004Z,21.00
2018-05-28T06:13:53.467Z,20.90
2018-05-28T06:16:20.916Z,21.20
2018-05-28T06:18:48.410Z,21.20
2018-05-28T06:21:15.883Z,21.30
2018-05-28T06:23:44.117Z,21.30
2018-05-28T06:26:11.595Z,21.30
2018-05-28T06:28:39.061Z,21.30
2018-05-28T06:31:06.532Z,21.30
2018-05-28T06:33:34.092Z,21.40
2018-05-28T06:36:01.669Z,21.40
2018-05-28T06:38:29.221Z,21.60
2018-05-28T06:40:56.684Z,21.80
2018-05-28T06:43:24.240Z,21.80
2018-05-28T06:45:51.736Z,21.80
2018-05-28T06:48:19.343Z,22.00
2018-05-28T06:50:48.165Z,22.00
2018-05-28T06:53:15.655Z,22.20
2018-05-28T06:55:43.913Z,22.10
2018-05-28T06:58:11.379Z,22.10
2018-05-28T07:00:38.841Z,22.20
2018-05-28T07:03:06.313Z,22.20
2018-05-28T07:05:34.552Z,22.30
2018-05-28T07:08:02.037Z,22.30
2018-05-28T07:10:29.608Z,22.30
2018-05-28T07:12:57.176Z,22.40
2018-05-28T07:15:24.645Z,22.30
2018-05-28T07:17:52.916Z,22.30
2018-05-28T07:20:20.495Z,22.30
2018-05-28T07:22:48.813Z,22.50
2018-05-28T07:25:16.334Z,22.50
2018-05-28T07:27:43.793Z,22.50
2018-05-28T07:30:11.361Z,22.60
2018-05-28T07:32:39.589Z,22.60
2018-05-28T07:35:07.098Z,22.60
2018-05-28T07:37:34.574Z,22.80
2018-05-28T07:40:02.118Z,22.70
2018-05-28T07:42:29.675Z,22.80
2018-05-28T07:44:57.133Z,22.80
2018-05-28T07:47:24.608Z,22.80
2018-05-28T07:49:52.174Z,22.90
2018-05-28T07:52:19.731Z,23.00
2018-05-28T07:54:47.188Z,23.10
2018-05-28T07:57:16.107Z,23.20
2018-05-28T07:59:43.655Z,23.30
2018-05-28T08:02:11.123Z,23.50
2018-05-28T08:04:38.588Z,23.50
2018-05-28T08:07:06.136Z,23.70
2018-05-28T08:09:33.605Z,23.80
2018-05-28T08:12:01.187Z,23.70
2018-05-28T08:14:29.416Z,23.80
2018-05-28T08:16:56.881Z,23.70
2018-05-28T08:19:24.359Z,23.80
2018-05-28T08:21:51.843Z,23.90
2018-05-28T08:24:19.314Z,24.10
2018-05-28T08:26:47.574Z,24.50
2018-05-28T08:29:15.144Z,24.50
2018-05-28T08:31:42.724Z,24.60
2018-05-28T08:34:10.952Z,24.90
2018-05-28T08:36:38.418Z,24.90
2018-05-28T08:39:05.876Z,25.10
2018-05-28T08:41:33.382Z,25.20
2018-05-28T08:44:00.849Z,25.10
2018-05-28T08:46:28.413Z,24.90
2018-05-28T08:48:56.641Z,24.90
2018-05-28T08:51:24.109Z,24.90
2018-05-28T08:53:51.616Z,25.10
2018-05-28T08:56:20.609Z,24.90
2018-05-28T08:58:48.073Z,24.90
2018-05-28T09:01:15.551Z,25.10
2018-05-28T09:03:43.083Z,25.20
2018-05-28T09:06:10.648Z,25.40
2018-05-28T09:08:38.101Z,25.50
2018-05-28T09:11:05.557Z,25.60
2018-05-28T09:13:33.027Z,25.90
2018-05-28T09:16:00.477Z,26.00
2018-05-28T09:18:27.945Z,26.00
2018-05-28T09:20:55.442Z,25.90
2018-05-28T09:23:23.673Z,25.90
2018-05-28T09:25:51.141Z,25.80
2018-05-28T09:28:18.610Z,25.90
2018-05-28T09:30:46.101Z,26.00
2018-05-28T09:33:13.578Z,26.20
2018-05-28T09:35:41.045Z,26.30
2018-05-28T09:38:08.509Z,26.40
2018-05-28T09:40:36.723Z,26.40
2018-05-28T09:43:04.238Z,26.40
2018-05-28T09:45:31.798Z,26.50
2018-05-28T09:47:59.319Z,26.50
2018-05-28T09:50:26.789Z,26.50
2018-05-28T09:52:54.253Z,26.60
2018-05-28T09:55:21.732Z,26.60
2018-05-28T09:57:49.208Z,26.90
2018-05-28T10:00:16.662Z,26.80
2018-05-28T10:02:44.139Z,26.90
2018-05-28T10:05:11.696Z,27.10
2018-05-28T10:07:39.176Z,27.20
2018-05-28T10:10:09.208Z,27.20
2018-05-28T10:12:37.518Z,27.40
2018-05-28T10:15:04.972Z,27.40
2018-05-28T10:17:32.443Z,27.30
2018-05-28T10:19:59.911Z,27.30
2018-05-28T10:22:27.389Z,27.40
2018-05-28T10:24:54.853Z,27.40
2018-05-28T10:27:22.306Z,27.40
2018-05-28T10:29:49.764Z,27.40
2018-05-28T10:32:17.216Z,27.40
2018-05-28T10:34:44.672Z,27.60
2018-05-28T10:37:12.182Z,27.60
2018-05-28T10:39:40.412Z,27.40
2018-05-28T10:42:07.885Z,27.30
2018-05-28T10:44:35.392Z,27.40
2018-05-28T10:47:04.380Z,27.60
2018-05-28T10:49:31.946Z,27.60
2018-05-28T10:51:59.411Z,27.70
2018-05-28T10:54:26.874Z,27.70
2018-05-28T10:56:54.336Z,27.80
2018-05-28T10:59:21.811Z,27.80
2018-05-28T11:01:49.360Z,27.70
2018-05-28T11:04:16.827Z,27.80
2018-05-28T11:06:44.284Z,27.80
2018-05-28T11:09:11.757Z,27.90
2018-05-28T11:11:39.983Z,28.00
2018-05-28T11:14:07.510Z,28.00
2018-05-28T11:16:35.517Z,28.20
2018-05-28T11:19:02.982Z,28.00
2018-05-28T11:21:30.439Z,28.00
2018-05-28T11:23:57.908Z,27.90
2018-05-28T11:26:25.369Z,27.70
2018-05-28T11:28:52.854Z,27.90
2018-05-28T11:31:20.317Z,27.80
2018-05-28T11:33:47.799Z,28.20
2018-05-28T11:36:15.365Z,28.30
2018-05-28T11:38:42.827Z,28.40
2018-05-28T11:41:11.048Z,28.20
2018-05-28T11:43:43.427Z,28.20
2018-05-28T11:46:10.894Z,28.50
2018-05-28T11:48:38.416Z,28.50
2018-05-28T11:51:05.890Z,28.50
2018-05-28T11:53:34.153Z,28.50
2018-05-28T11:56:03.253Z,28.40
2018-05-28T11:58:30.716Z,28.30
2018-05-28T12:00:58.194Z,28.30
2018-05-28T12:03:25.734Z,28.30
2018-05-28T12:05:53.199Z,28.20
2018-05-28T12:08:20.674Z,28.10
2018-05-28T12:10:48.143Z,28.20
2018-05-28T12:13:15.693Z,28.30
2018-05-28T12:15:43.154Z,28.60
2018-05-28T12:18:10.642Z,28.60
2018-05-28T12:20:38.843Z,28.70
2018-05-28T12:23:06.339Z,28.70
2018-05-28T12:25:33.813Z,28.60
2018-05-28T12:28:01.276Z,28.70
2018-05-28T12:30:28.838Z,28.70
2018-05-28T12:32:56.309Z,28.60
2018-05-28T12:35:23.763Z,28.80
2018-05-28T12:37:51.238Z,28.80
2018-05-28T12:40:18.697Z,28.80
2018-05-28T12:42:47.683Z,28.80
2018-05-28T12:45:15.157Z,28.80
2018-05-28T12:47:42.732Z,28.80
2018-05-28T12:50:10.988Z,28.70
2018-05-28T12:52:38.460Z,28.70
2018-05-28T12:55:06.698Z,28.50
2018-05-28T12:57:34.224Z,28.50
2018-05-28T13:00:01.769Z,28.50
2018-05-28T13:02:29.237Z,28.50
2018-05-28T13:04:56.790Z,28.50
2018-05-28T13:07:24.243Z,28.60
2018-05-28T13:09:51.720Z,28.30
2018-05-28T13:12:19.182Z,28.40
2018-05-28T13:14:48.167Z,28.60
2018-05-28T13:17:15.629Z,28.60
2018-05-28T13:19:43.250Z,28.50
2018-05-28T13:22:10.751Z,28.30
2018-05-28T13:24:38.338Z,28.50
2018-05-28T13:27:05.942Z,28.90
2018-05-28T13:29:34.133Z,28.90
2018-05-28T13:32:01.586Z,29.10
2018-05-28T13:34:29.051Z,29.40
2018-05-28T13:36:56.550Z,29.30
2018-05-28T13:39:24.029Z,29.30
2018-05-28T13:41:53.001Z,29.30
2018-05-28T13:44:20.475Z,29.30
2018-05-28T13:46:48.035Z,29.00
2018-05-28T13:49:15.512Z,29.20
2018-05-28T13:51:43.748Z,29.40
2018-05-28T13:54:11.255Z,29.40
2018-05-28T13:56:38.823Z,29.90
2018-05-28T13:59:07.060Z,29.60
2018-05-28T14:01:34.512Z,29.60
2018-05-28T14:04:02.739Z,29.60
2018-05-28T14:06:30.200Z,29.50
2018-05-28T14:08:57.746Z,29.70
2018-05-28T14:11:25.205Z,29.50
2018-05-28T14:13:52.667Z,29.90
2018-05-28T14:16:20.172Z,30.00
2018-05-28T14:18:47.720Z,30.20
2018-05-28T14:21:15.197Z,30.30
2018-05-28T14:23:42.665Z,30.10
2018-05-28T14:26:10.910Z,29.80
2018-05-28T14:28:38.365Z,29.80
2018-05-28T14:31:05.852Z,29.50
2018-05-28T14:33:33.338Z,29.30
2018-05-28T14:36:01.545Z,29.50
2018-05-28T14:38:29.009Z,29.30
2018-05-28T14:40:56.495Z,29.60
2018-05-28T14:43:23.963Z,29.40
2018-05-28T14:45:51.543Z,29.70
2018-05-28T14:48:19.021Z,29.30
2018-05-28T14:50:46.557Z,29.20
2018-05-28T14:53:14.134Z,29.40
2018-05-28T14:55:41.701Z,29.40
2018-05-28T14:58:09.166Z,30.20
2018-05-28T15:00:36.631Z,30.60
2018-05-28T15:03:04.114Z,30.40
2018-05-28T15:05:32.342Z,30.10
2018-05-28T15:07:59.823Z,30.10
2018-05-28T15:10:27.403Z,30.40
2018-05-28T15:12:54.875Z,30.60
2018-05-28T15:15:23.100Z,30.40
2018-05-28T15:17:50.571Z,30.40
2018-05-28T15:20:18.029Z,30.60
2018-05-28T15:22:45.507Z,30.70
2018-05-28T15:25:13.074Z,30.20
2018-05-28T15:27:40.537Z,30.50
2018-05-28T15:30:08.088Z,30.30
2018-05-28T15:32:35.468Z,30.20
2018-05-28T15:35:02.941Z,30.40
2018-05-28T15:37:30.479Z,30.30
2018-05-28T15:39:58.054Z,30.40
2018-05-28T15:42:25.755Z,30.80
2018-05-28T15:44:53.998Z,30.50
2018-05-28T15:47:22.641Z,30.50
2018-05-28T15:49:50.099Z,29.80
2018-05-28T15:52:17.607Z,29.90
2018-05-28T15:54:45.209Z,30.10
2018-05-28T15:57:12.667Z,30.40
2018-05-28T15:59:40.895Z,30.30
2018-05-28T16:02:08.389Z,30.30
2018-05-28T16:04:35.856Z,30.30
2018-05-28T16:07:03.319Z,30.40
2018-05-28T16:09:30.801Z,30.40
2018-05-28T16:11:59.107Z,30.10
2018-05-28T16:14:27.338Z,29.90
2018-05-28T16:16:54.891Z,29.80
2018-05-28T16:19:22.464Z,29.70
2018-05-28T16:21:50.020Z,30.10
2018-05-28T16:24:17.598Z,30.10
2018-05-28T16:26:45.837Z,30.20
2018-05-28T16:29:13.291Z,30.20
2018-05-28T16:31:40.800Z,30.20
2018-05-28T16:34:08.259Z,30.00
2018-05-28T16:36:35.721Z,29.60
2018-05-28T16:39:03.195Z,29.20
2018-05-28T16:41:30.652Z,30.00
2018-05-28T16:43:58.145Z,29.80
2018-05-28T16:46:26.374Z,29.80
2018-05-28T16:48:55.036Z,30.60
2018-05-28T16:51:22.501Z,30.50
2018-05-28T16:53:49.962Z,30.50
2018-05-28T16:56:17.463Z,30.30
2018-05-28T16:58:44.916Z,29.90
2018-05-28T17:01:12.379Z,29.90
2018-05-28T17:03:39.851Z,30.20
2018-05-28T17:06:07.304Z,30.10
2018-05-28T17:08:34.786Z,29.80
2018-05-28T17:11:02.366Z,30.20
2018-05-28T17:13:29.909Z,29.60
2018-05-28T17:15:58.875Z,29.60
2018-05-28T17:18:26.334Z,29.60
2018-05-28T17:20:53.855Z,29.30
2018-05-28T17:23:21.283Z,29.80
2018-05-28T17:25:48.749Z,30.10
2018-05-28T17:28:16.240Z,29.90
2018-05-28T17:30:44.497Z,29.40
2018-05-28T17:33:11.978Z,29.40
2018-05-28T17:35:39.434Z,29.20
2018-05-28T17:38:07.669Z,29.80
2018-05-28T17:40:35.153Z,29.80
2018-05-28T17:43:02.606Z,31.40
2018-05-28T17:45:30.073Z,32.00
2018-05-28T17:47:57.532Z,32.50
2018-05-28T17:50:25.018Z,31.90
2018-05-28T17:52:52.481Z,32.30
2018-05-28T17:55:21.018Z,32.40
2018-05-28T17:57:48.477Z,32.40
2018-05-28T18:00:15.943Z,32.30
2018-05-28T18:02:43.429Z,32.40
2018-05-28T18:05:10.916Z,32.40
2018-05-28T18:07:38.377Z,32.40
2018-05-28T18:10:05.844Z,32.20
2018-05-28T18:12:33.392Z,32.20
2018-05-28T18:15:00.843Z,32.20
2018-05-28T18:17:28.428Z,32.10
2018-05-28T18:19:55.898Z,32.00
2018-05-28T18:22:23.458Z,31.80
2018-05-28T18:24:50.916Z,31.50
2018-05-28T18:27:18.388Z,31.60
2018-05-28T18:29:45.879Z,31.30
2018-05-28T18:32:14.100Z,31.60
2018-05-28T18:34:41.587Z,31.60
2018-05-28T18:37:09.057Z,31.80
2018-05-28T18:39:36.523Z,31.90
2018-05-28T18:42:04.763Z,31.50
2018-05-28T18:44:32.246Z,31.40
2018-05-28T18:46:59.699Z,30.90
2018-05-28T18:49:27.148Z,30.80
2018-05-28T18:51:54.624Z,31.20
2018-05-28T18:54:22.085Z,31.10
2018-05-28T18:56:49.732Z,30.50
2018-05-28T18:59:17.137Z,30.80
2018-05-28T19:01:44.600Z,30.50
2018-05-28T19:04:12.067Z,30.70
2018-05-28T19:06:40.315Z,30.70
2018-05-28T19:09:07.896Z,30.60
2018-05-28T19:11:35.375Z,30.80
2018-05-28T19:14:02.914Z,30.90
2018-05-28T19:16:30.373Z,31.00
2018-05-28T19:18:57.940Z,31.00
2018-05-28T19:21:25.389Z,31.00
2018-05-28T19:23:52.973Z,31.20
2018-05-28T19:26:21.103Z,31.30
2018-05-28T19:28:48.561Z,31.40
2018-05-28T19:31:16.024Z,31.20
2018-05-28T19:33:43.517Z,31.20
2018-05-28T19:36:10.955Z,30.70
2018-05-28T19:38:38.427Z,30.90
2018-05-28T19:41:05.897Z,30.80
2018-05-28T19:43:33.387Z,30.80
2018-05-28T19:46:00.854Z,30.80
2018-05-28T19:48:28.461Z,30.70
2018-05-28T19:50:55.919Z,30.50
2018-05-28T19:53:23.390Z,30.60
2018-05-28T19:55:50.883Z,30.40
2018-05-28T19:58:18.360Z,30.30
2018-05-28T20:00:52.369Z,30.10
2018-05-28T20:03:19.839Z,30.10
2018-05-28T20:05:47.296Z,30.10
2018-05-28T20:08:14.759Z,29.20
2018-05-28T20:10:42.209Z,29.50
2018-05-28T20:13:09.679Z,29.80
2018-05-28T20:15:37.252Z,29.50
2018-05-28T20:18:06.230Z,28.70
2018-05-28T20:20:33.716Z,28.60
2018-05-28T20:23:01.261Z,29.20
2018-05-28T20:25:28.759Z,29.10
2018-05-28T20:27:57.015Z,29.30
2018-05-28T20:30:24.569Z,29.30
2018-05-28T20:32:52.036Z,29.20
2018-05-28T20:35:19.541Z,29.20
2018-05-28T20:37:47.805Z,28.80
2018-05-28T20:40:15.349Z,28.80
2018-05-28T20:42:45.397Z,28.70
2018-05-28T20:45:13.657Z,29.00
2018-05-28T20:47:41.121Z,29.00
2018-05-28T20:50:08.677Z,29.00
2018-05-28T20:52:36.145Z,29.00
2018-05-28T20:55:03.604Z,28.00
2018-05-28T20:57:31.103Z,26.70
2018-05-28T20:59:58.553Z,26.10
2018-05-28T21:02:26.813Z,25.90
2018-05-28T21:04:54.269Z,25.90
2018-05-28T21:07:21.750Z,25.60
2018-05-28T21:09:50.060Z,25.50
2018-05-28T21:12:17.521Z,25.50
2018-05-28T21:14:44.989Z,25.50
2018-05-28T21:17:12.461Z,25.20
2018-05-28T21:19:39.997Z,25.10
2018-05-28T21:22:07.495Z,25.70
2018-05-28T21:24:34.960Z,25.90
2018-05-28T21:27:02.433Z,25.60
2018-05-28T21:29:29.908Z,25.50
2018-05-28T21:31:57.387Z,25.70
2018-05-28T21:34:25.629Z,25.40
2018-05-28T21:36:53.092Z,25.40
2018-05-28T21:39:20.678Z,25.20
2018-05-28T21:41:48.963Z,25.70
2018-05-28T21:44:16.439Z,25.60
2018-05-28T21:46:43.981Z,25.40
2018-05-28T21:49:13.711Z,25.60
2018-05-28T21:51:41.940Z,25.50
2018-05-28T21:54:09.389Z,25.50
2018-05-28T21:56:36.882Z,25.60
2018-05-28T21:59:04.370Z,24.30
2018-05-28T22:01:37.659Z,25.20
2018-05-28T22:04:05.879Z,25.50
2018-05-28T22:06:33.400Z,25.50
2018-05-28T22:09:00.862Z,25.50
2018-05-28T22:11:28.323Z,25.60
2018-05-28T22:13:55.781Z,25.10
2018-05-28T22:16:23.261Z,25.50
2018-05-28T22:18:50.721Z,25.60
2018-05-28T22:21:18.281Z,25.10
2018-05-28T22:23:45.742Z,25.00
2018-05-28T22:26:13.209Z,25.20
2018-05-28T22:28:40.768Z,25.40
2018-05-28T22:31:08.229Z,25.60
2018-05-28T22:33:35.681Z,25.70
2018-05-28T22:36:03.137Z,25.30
2018-05-28T22:38:30.596Z,25.20
2018-05-28T22:40:58.077Z,25.60
2018-05-28T22:43:25.546Z,25.00
2018-05-28T22:45:53.021Z,25.00
2018-05-28T22:48:21.258Z,24.90
2018-05-28T22:50:48.737Z,24.90
2018-05-28T22:53:16.213Z,25.40
2018-05-28T22:55:44.035Z,25.40
2018-05-28T22:58:11.499Z,24.50
2018-05-28T23:00:38.981Z,24.60
2018-05-28T23:03:06.558Z,24.90
2018-05-28T23:05:34.835Z,24.60
2018-05-28T23:08:02.394Z,24.60
2018-05-28T23:10:29.860Z,24.60
2018-05-28T23:12:57.433Z,24.20
2018-05-28T23:15:24.893Z,24.60
2018-05-28T23:17:53.127Z,24.20
2018-05-28T23:20:20.653Z,24.20
2018-05-28T23:22:48.897Z,24.70
2018-05-28T23:25:16.354Z,24.60
2018-05-28T23:27:43.812Z,24.90
2018-05-28T23:30:11.279Z,24.70
2018-05-28T23:32:38.773Z,24.60
2018-05-28T23:35:06.221Z,23.90
2018-05-28T23:37:34.457Z,24.20
2018-05-28T23:40:01.917Z,24.20
2018-05-28T23:42:29.372Z,24.20
2018-05-28T23:44:56.835Z,24.30
2018-05-28T23:47:24.297Z,24.40
2018-05-28T23:49:51.770Z,24.10
2018-05-28T23:52:19.250Z,23.60
2018-05-28T23:54:46.708Z,23.50
2018-05-28T23:57:14.170Z,23.50
2018-05-28T23:59:41.643Z,23.70
